sensor_id;sensor_type;location;lat;lon;timestamp;P1;durP1;ratioP1;P2;durP2;ratioP2
53261;SDS011;39658;51.090;-1.786;2023-09-12T00:01:20;9.82;;;4.43;;
53261;SDS011;39658;51.090;-1.786;2023-09-12T00:03:47;9.88;;;4.30;;
53261;SDS011;39658;51.090;-1.786;2023-09-12T00:06:13;8.23;;;4.28;;
53261;SDS011;39658;51.090;-1.786;2023-09-12T00:08:40;10.73;;;4.38;;
53261;SDS011;39658;51.090;-1.786;2023-09-12T00:11:08;9.70;;;3.40;;
53261;SDS011;39658;51.090;-1.786;2023-09-12T00:13:38;15.25;;;4.80;;
53261;SDS011;39658;51.090;-1.786;2023-09-12T00:16:05;9.77;;;4.18;;
53261;SDS011;39658;51.090;-1.786;2023-09-12T00:18:32;9.30;;;3.88;;
53261;SDS011;39658;51.090;-1.786;2023-09-12T00:21:00;6.65;;;3.20;;
53261;SDS011;39658;51.090;-1.786;2023-09-12T00:23:27;10.25;;;4.00;;
53261;SDS011;39658;51.090;-1.786;2023-09-12T00:25:54;13.40;;;3.78;;
53261;SDS011;39658;51.090;-1.786;2023-09-12T00:28:21;11.02;;;3.33;;
53261;SDS011;39658;51.090;-1.786;2023-09-12T00:30:49;9.25;;;3.92;;
53261;SDS011;39658;51.090;-1.786;2023-09-12T00:33:17;11.15;;;3.78;;
53261;SDS011;39658;51.090;-1.786;2023-09-12T00:35:44;10.45;;;3.53;;
53261;SDS011;39658;51.090;-1.786;2023-09-12T00:38:11;7.88;;;3.35;;
53261;SDS011;39658;51.090;-1.786;2023-09-12T00:40:38;6.15;;;3.03;;
53261;SDS011;39658;51.090;-1.786;2023-09-12T00:43:04;6.57;;;3.00;;
53261;SDS011;39658;51.090;-1.786;2023-09-12T00:45:31;9.40;;;3.10;;
53261;SDS011;39658;51.090;-1.786;2023-09-12T00:47:59;8.57;;;3.47;;
53261;SDS011;39658;51.090;-1.786;2023-09-12T00:50:30;9.20;;;3.28;;
53261;SDS011;39658;51.090;-1.786;2023-09-12T00:52:58;10.93;;;2.85;;
53261;SDS011;39658;51.090;-1.786;2023-09-12T00:55:26;6.90;;;3.00;;
53261;SDS011;39658;51.090;-1.786;2023-09-12T00:57:55;6.72;;;3.00;;
53261;SDS011;39658;51.090;-1.786;2023-09-12T01:00:22;8.02;;;2.75;;
53261;SDS011;39658;51.090;-1.786;2023-09-12T01:02:49;11.75;;;3.05;;
53261;SDS011;39658;51.090;-1.786;2023-09-12T01:05:19;6.78;;;2.70;;
53261;SDS011;39658;51.090;-1.786;2023-09-12T01:07:48;6.13;;;2.72;;
53261;SDS011;39658;51.090;-1.786;2023-09-12T01:10:15;8.57;;;2.63;;
53261;SDS011;39658;51.090;-1.786;2023-09-12T01:12:42;6.65;;;2.35;;
53261;SDS011;39658;51.090;-1.786;2023-09-12T01:15:09;7.47;;;3.17;;
53261;SDS011;39658;51.090;-1.786;2023-09-12T01:17:39;6.25;;;2.50;;
53261;SDS011;39658;51.090;-1.786;2023-09-12T01:20:07;6.32;;;2.53;;
53261;SDS011;39658;51.090;-1.786;2023-09-12T01:28:30;6.70;;;2.53;;
53261;SDS011;39658;51.090;-1.786;2023-09-12T01:31:00;7.75;;;2.60;;
53261;SDS011;39658;51.090;-1.786;2023-09-12T01:33:28;6.95;;;2.58;;
53261;SDS011;39658;51.090;-1.786;2023-09-12T01:35:55;6.63;;;2.00;;
53261;SDS011;39658;51.090;-1.786;2023-09-12T01:38:22;4.82;;;1.90;;
53261;SDS011;39658;51.090;-1.786;2023-09-12T01:40:49;5.68;;;2.05;;
53261;SDS011;39658;51.090;-1.786;2023-09-12T01:43:18;7.07;;;2.17;;
53261;SDS011;39658;51.090;-1.786;2023-09-12T01:45:48;6.53;;;2.08;;
53261;SDS011;39658;51.090;-1.786;2023-09-12T01:48:19;5.43;;;2.10;;
53261;SDS011;39658;51.090;-1.786;2023-09-12T01:50:49;5.32;;;1.73;;
53261;SDS011;39658;51.090;-1.786;2023-09-12T01:53:16;5.30;;;2.50;;
53261;SDS011;39658;51.090;-1.786;2023-09-12T01:55:43;5.20;;;1.75;;
53261;SDS011;39658;51.090;-1.786;2023-09-12T01:58:11;7.18;;;2.13;;
53261;SDS011;39658;51.090;-1.786;2023-09-12T02:00:39;8.93;;;2.35;;
53261;SDS011;39658;51.090;-1.786;2023-09-12T02:03:07;7.82;;;2.20;;
53261;SDS011;39658;51.090;-1.786;2023-09-12T02:05:34;5.55;;;2.15;;
53261;SDS011;39658;51.090;-1.786;2023-09-12T02:08:02;5.25;;;2.00;;
53261;SDS011;39658;51.090;-1.786;2023-09-12T02:10:30;4.13;;;1.70;;
53261;SDS011;39658;51.090;-1.786;2023-09-12T02:12:57;5.95;;;2.28;;
53261;SDS011;39658;51.090;-1.786;2023-09-12T02:15:23;4.03;;;1.70;;
53261;SDS011;39658;51.090;-1.786;2023-09-12T02:17:50;5.00;;;2.53;;
53261;SDS011;39658;51.090;-1.786;2023-09-12T02:20:19;5.60;;;1.95;;
53261;SDS011;39658;51.090;-1.786;2023-09-12T02:22:46;9.07;;;2.42;;
53261;SDS011;39658;51.090;-1.786;2023-09-12T02:25:13;8.63;;;1.88;;
53261;SDS011;39658;51.090;-1.786;2023-09-12T02:27:39;6.05;;;1.73;;
53261;SDS011;39658;51.090;-1.786;2023-09-12T02:30:06;3.28;;;1.30;;
53261;SDS011;39658;51.090;-1.786;2023-09-12T02:32:34;6.20;;;1.75;;
53261;SDS011;39658;51.090;-1.786;2023-09-12T02:35:01;4.97;;;1.52;;
53261;SDS011;39658;51.090;-1.786;2023-09-12T02:37:29;4.97;;;1.80;;
53261;SDS011;39658;51.090;-1.786;2023-09-12T02:39:56;3.78;;;1.20;;
53261;SDS011;39658;51.090;-1.786;2023-09-12T02:42:22;6.53;;;1.83;;
53261;SDS011;39658;51.090;-1.786;2023-09-12T02:44:50;5.20;;;1.35;;
53261;SDS011;39658;51.090;-1.786;2023-09-12T02:47:17;4.38;;;1.52;;
53261;SDS011;39658;51.090;-1.786;2023-09-12T02:49:44;4.15;;;1.40;;
53261;SDS011;39658;51.090;-1.786;2023-09-12T02:52:11;4.18;;;1.50;;
53261;SDS011;39658;51.090;-1.786;2023-09-12T02:54:39;5.07;;;1.92;;
53261;SDS011;39658;51.090;-1.786;2023-09-12T02:57:05;4.15;;;1.50;;
53261;SDS011;39658;51.090;-1.786;2023-09-12T02:59:32;3.45;;;1.33;;
53261;SDS011;39658;51.090;-1.786;2023-09-12T03:01:59;4.55;;;1.60;;
53261;SDS011;39658;51.090;-1.786;2023-09-12T03:04:25;4.15;;;1.65;;
53261;SDS011;39658;51.090;-1.786;2023-09-12T03:06:53;5.60;;;1.38;;
53261;SDS011;39658;51.090;-1.786;2023-09-12T03:09:20;3.25;;;1.10;;
53261;SDS011;39658;51.090;-1.786;2023-09-12T03:11:49;3.58;;;1.30;;
53261;SDS011;39658;51.090;-1.786;2023-09-12T03:14:16;4.70;;;1.85;;
53261;SDS011;39658;51.090;-1.786;2023-09-12T03:16:42;6.32;;;1.73;;
53261;SDS011;39658;51.090;-1.786;2023-09-12T03:19:09;3.80;;;1.33;;
53261;SDS011;39658;51.090;-1.786;2023-09-12T03:21:36;5.63;;;1.40;;
53261;SDS011;39658;51.090;-1.786;2023-09-12T03:24:04;4.13;;;1.58;;
53261;SDS011;39658;51.090;-1.786;2023-09-12T03:26:33;6.32;;;1.50;;
53261;SDS011;39658;51.090;-1.786;2023-09-12T03:29:01;3.78;;;1.42;;
53261;SDS011;39658;51.090;-1.786;2023-09-12T03:31:28;4.43;;;1.73;;
53261;SDS011;39658;51.090;-1.786;2023-09-12T03:33:55;5.00;;;1.73;;
53261;SDS011;39658;51.090;-1.786;2023-09-12T03:36:22;4.68;;;1.70;;
53261;SDS011;39658;51.090;-1.786;2023-09-12T03:38:48;4.85;;;1.85;;
53261;SDS011;39658;51.090;-1.786;2023-09-12T03:41:15;5.55;;;1.70;;
53261;SDS011;39658;51.090;-1.786;2023-09-12T03:43:42;4.80;;;1.85;;
53261;SDS011;39658;51.090;-1.786;2023-09-12T03:46:10;7.88;;;2.35;;
53261;SDS011;39658;51.090;-1.786;2023-09-12T03:48:37;5.63;;;1.63;;
53261;SDS011;39658;51.090;-1.786;2023-09-12T03:51:04;6.10;;;2.00;;
53261;SDS011;39658;51.090;-1.786;2023-09-12T03:53:31;4.95;;;1.85;;
53261;SDS011;39658;51.090;-1.786;2023-09-12T03:55:58;5.70;;;1.75;;
53261;SDS011;39658;51.090;-1.786;2023-09-12T03:58:25;6.60;;;1.90;;
53261;SDS011;39658;51.090;-1.786;2023-09-12T04:00:52;5.18;;;1.92;;
53261;SDS011;39658;51.090;-1.786;2023-09-12T04:03:20;6.20;;;1.90;;
53261;SDS011;39658;51.090;-1.786;2023-09-12T04:05:47;4.57;;;1.65;;
53261;SDS011;39658;51.090;-1.786;2023-09-12T04:08:14;6.90;;;2.00;;
53261;SDS011;39658;51.090;-1.786;2023-09-12T04:10:40;5.75;;;1.60;;
53261;SDS011;39658;51.090;-1.786;2023-09-12T04:13:07;4.20;;;1.67;;
53261;SDS011;39658;51.090;-1.786;2023-09-12T04:15:34;4.70;;;1.65;;
53261;SDS011;39658;51.090;-1.786;2023-09-12T04:18:00;7.47;;;2.60;;
53261;SDS011;39658;51.090;-1.786;2023-09-12T04:20:29;5.50;;;1.85;;
53261;SDS011;39658;51.090;-1.786;2023-09-12T04:22:55;4.13;;;1.63;;
53261;SDS011;39658;51.090;-1.786;2023-09-12T04:25:22;5.50;;;1.73;;
53261;SDS011;39658;51.090;-1.786;2023-09-12T04:27:49;5.70;;;1.90;;
53261;SDS011;39658;51.090;-1.786;2023-09-12T04:30:15;4.70;;;1.73;;
53261;SDS011;39658;51.090;-1.786;2023-09-12T04:32:42;4.65;;;1.92;;
53261;SDS011;39658;51.090;-1.786;2023-09-12T04:35:10;4.47;;;1.60;;
53261;SDS011;39658;51.090;-1.786;2023-09-12T04:37:38;6.03;;;2.05;;
53261;SDS011;39658;51.090;-1.786;2023-09-12T04:40:06;5.43;;;1.95;;
53261;SDS011;39658;51.090;-1.786;2023-09-12T04:42:33;5.72;;;2.00;;
53261;SDS011;39658;51.090;-1.786;2023-09-12T04:45:00;5.20;;;2.10;;
53261;SDS011;39658;51.090;-1.786;2023-09-12T04:47:28;10.50;;;2.28;;
53261;SDS011;39658;51.090;-1.786;2023-09-12T04:49:55;6.40;;;1.73;;
53261;SDS011;39658;51.090;-1.786;2023-09-12T04:52:22;5.68;;;2.20;;
53261;SDS011;39658;51.090;-1.786;2023-09-12T04:54:50;4.15;;;1.80;;
53261;SDS011;39658;51.090;-1.786;2023-09-12T04:57:16;7.22;;;2.25;;
53261;SDS011;39658;51.090;-1.786;2023-09-12T04:59:43;7.07;;;2.08;;
53261;SDS011;39658;51.090;-1.786;2023-09-12T05:02:10;5.13;;;1.98;;
53261;SDS011;39658;51.090;-1.786;2023-09-12T05:04:36;4.40;;;1.77;;
53261;SDS011;39658;51.090;-1.786;2023-09-12T05:07:03;4.90;;;1.90;;
53261;SDS011;39658;51.090;-1.786;2023-09-12T05:09:30;4.75;;;1.60;;
53261;SDS011;39658;51.090;-1.786;2023-09-12T05:11:58;4.97;;;1.83;;
53261;SDS011;39658;51.090;-1.786;2023-09-12T05:14:25;6.45;;;2.10;;
53261;SDS011;39658;51.090;-1.786;2023-09-12T05:16:52;6.35;;;2.17;;
53261;SDS011;39658;51.090;-1.786;2023-09-12T05:19:19;5.38;;;2.10;;
53261;SDS011;39658;51.090;-1.786;2023-09-12T05:21:46;5.53;;;2.17;;
53261;SDS011;39658;51.090;-1.786;2023-09-12T05:24:12;4.43;;;1.83;;
53261;SDS011;39658;51.090;-1.786;2023-09-12T05:26:39;6.72;;;2.20;;
53261;SDS011;39658;51.090;-1.786;2023-09-12T05:29:07;6.97;;;2.50;;
53261;SDS011;39658;51.090;-1.786;2023-09-12T05:31:34;7.50;;;2.65;;
53261;SDS011;39658;51.090;-1.786;2023-09-12T05:34:01;6.78;;;2.65;;
53261;SDS011;39658;51.090;-1.786;2023-09-12T05:36:28;8.77;;;3.80;;
53261;SDS011;39658;51.090;-1.786;2023-09-12T05:38:55;6.18;;;2.72;;
53261;SDS011;39658;51.090;-1.786;2023-09-12T05:41:22;6.90;;;2.53;;
53261;SDS011;39658;51.090;-1.786;2023-09-12T05:43:48;6.22;;;2.10;;
53261;SDS011;39658;51.090;-1.786;2023-09-12T05:46:16;5.60;;;2.75;;
53261;SDS011;39658;51.090;-1.786;2023-09-12T05:48:43;6.05;;;2.33;;
53261;SDS011;39658;51.090;-1.786;2023-09-12T05:51:11;7.93;;;2.30;;
53261;SDS011;39658;51.090;-1.786;2023-09-12T05:53:38;6.53;;;2.40;;
53261;SDS011;39658;51.090;-1.786;2023-09-12T05:56:04;8.25;;;3.15;;
53261;SDS011;39658;51.090;-1.786;2023-09-12T05:58:31;7.40;;;2.63;;
53261;SDS011;39658;51.090;-1.786;2023-09-12T06:00:59;6.22;;;2.38;;
53261;SDS011;39658;51.090;-1.786;2023-09-12T06:03:27;5.38;;;2.22;;
53261;SDS011;39658;51.090;-1.786;2023-09-12T06:05:54;7.07;;;2.13;;
53261;SDS011;39658;51.090;-1.786;2023-09-12T06:08:21;5.00;;;2.17;;
53261;SDS011;39658;51.090;-1.786;2023-09-12T06:10:47;7.97;;;2.65;;
53261;SDS011;39658;51.090;-1.786;2023-09-12T06:13:18;8.63;;;2.00;;
53261;SDS011;39658;51.090;-1.786;2023-09-12T06:15:45;7.57;;;2.47;;
53261;SDS011;39658;51.090;-1.786;2023-09-12T06:18:12;8.38;;;2.33;;
53261;SDS011;39658;51.090;-1.786;2023-09-12T06:20:41;7.85;;;1.90;;
53261;SDS011;39658;51.090;-1.786;2023-09-12T06:23:08;8.05;;;2.10;;
53261;SDS011;39658;51.090;-1.786;2023-09-12T06:25:35;3.92;;;1.70;;
53261;SDS011;39658;51.090;-1.786;2023-09-12T06:28:02;8.50;;;2.55;;
53261;SDS011;39658;51.090;-1.786;2023-09-12T06:30:29;9.57;;;2.40;;
53261;SDS011;39658;51.090;-1.786;2023-09-12T06:32:55;6.25;;;2.20;;
53261;SDS011;39658;51.090;-1.786;2023-09-12T06:35:22;7.25;;;2.70;;
53261;SDS011;39658;51.090;-1.786;2023-09-12T06:37:50;5.13;;;2.10;;
53261;SDS011;39658;51.090;-1.786;2023-09-12T06:40:17;6.55;;;1.90;;
53261;SDS011;39658;51.090;-1.786;2023-09-12T06:42:44;6.88;;;1.70;;
53261;SDS011;39658;51.090;-1.786;2023-09-12T06:45:11;5.53;;;2.15;;
53261;SDS011;39658;51.090;-1.786;2023-09-12T06:47:37;5.43;;;2.30;;
53261;SDS011;39658;51.090;-1.786;2023-09-12T06:50:04;8.40;;;2.47;;
53261;SDS011;39658;51.090;-1.786;2023-09-12T06:52:31;5.53;;;1.85;;
53261;SDS011;39658;51.090;-1.786;2023-09-12T06:55:00;6.30;;;2.60;;
53261;SDS011;39658;51.090;-1.786;2023-09-12T06:57:26;7.60;;;2.47;;
53261;SDS011;39658;51.090;-1.786;2023-09-12T06:59:54;6.13;;;2.40;;
53261;SDS011;39658;51.090;-1.786;2023-09-12T07:02:20;5.43;;;2.08;;
53261;SDS011;39658;51.090;-1.786;2023-09-12T07:04:47;5.57;;;2.17;;
53261;SDS011;39658;51.090;-1.786;2023-09-12T07:07:14;5.72;;;2.20;;
53261;SDS011;39658;51.090;-1.786;2023-09-12T07:09:41;6.80;;;2.15;;
53261;SDS011;39658;51.090;-1.786;2023-09-12T07:12:09;6.38;;;2.33;;
53261;SDS011;39658;51.090;-1.786;2023-09-12T07:14:35;4.00;;;1.55;;
53261;SDS011;39658;51.090;-1.786;2023-09-12T07:17:03;5.90;;;2.30;;
53261;SDS011;39658;51.090;-1.786;2023-09-12T07:19:31;6.22;;;2.35;;
53261;SDS011;39658;51.090;-1.786;2023-09-12T07:21:58;5.80;;;2.20;;
53261;SDS011;39658;51.090;-1.786;2023-09-12T07:24:25;6.95;;;2.85;;
53261;SDS011;39658;51.090;-1.786;2023-09-12T07:26:52;6.85;;;2.47;;
53261;SDS011;39658;51.090;-1.786;2023-09-12T07:29:20;8.20;;;2.00;;
53261;SDS011;39658;51.090;-1.786;2023-09-12T07:31:47;6.22;;;1.92;;
53261;SDS011;39658;51.090;-1.786;2023-09-12T07:34:13;5.28;;;2.00;;
53261;SDS011;39658;51.090;-1.786;2023-09-12T07:36:40;6.35;;;1.98;;
53261;SDS011;39658;51.090;-1.786;2023-09-12T07:39:07;6.43;;;2.28;;
53261;SDS011;39658;51.090;-1.786;2023-09-12T07:41:34;8.65;;;2.58;;
53261;SDS011;39658;51.090;-1.786;2023-09-12T07:44:01;6.25;;;2.00;;
53261;SDS011;39658;51.090;-1.786;2023-09-12T07:46:31;6.10;;;2.15;;
53261;SDS011;39658;51.090;-1.786;2023-09-12T07:48:58;7.78;;;2.20;;
53261;SDS011;39658;51.090;-1.786;2023-09-12T07:51:24;8.10;;;2.58;;
53261;SDS011;39658;51.090;-1.786;2023-09-12T07:53:51;6.60;;;2.67;;
53261;SDS011;39658;51.090;-1.786;2023-09-12T07:56:18;9.45;;;2.05;;
53261;SDS011;39658;51.090;-1.786;2023-09-12T07:58:45;6.82;;;2.30;;
53261;SDS011;39658;51.090;-1.786;2023-09-12T08:01:11;9.48;;;2.20;;
53261;SDS011;39658;51.090;-1.786;2023-09-12T08:03:39;7.13;;;1.73;;
53261;SDS011;39658;51.090;-1.786;2023-09-12T08:06:09;6.95;;;2.50;;
53261;SDS011;39658;51.090;-1.786;2023-09-12T08:08:35;8.63;;;2.00;;
53261;SDS011;39658;51.090;-1.786;2023-09-12T08:11:02;13.05;;;2.38;;
53261;SDS011;39658;51.090;-1.786;2023-09-12T08:13:29;5.15;;;2.05;;
53261;SDS011;39658;51.090;-1.786;2023-09-12T08:15:57;5.82;;;1.90;;
53261;SDS011;39658;51.090;-1.786;2023-09-12T08:18:26;5.93;;;2.33;;
53261;SDS011;39658;51.090;-1.786;2023-09-12T08:20:56;5.90;;;2.30;;
53261;SDS011;39658;51.090;-1.786;2023-09-12T08:23:23;7.57;;;2.30;;
53261;SDS011;39658;51.090;-1.786;2023-09-12T08:25:50;9.20;;;2.75;;
53261;SDS011;39658;51.090;-1.786;2023-09-12T08:28:17;5.45;;;2.67;;
53261;SDS011;39658;51.090;-1.786;2023-09-12T08:30:44;6.28;;;2.47;;
53261;SDS011;39658;51.090;-1.786;2023-09-12T08:33:11;7.40;;;2.53;;
53261;SDS011;39658;51.090;-1.786;2023-09-12T08:35:38;5.97;;;2.80;;
53261;SDS011;39658;51.090;-1.786;2023-09-12T08:38:06;7.13;;;2.70;;
53261;SDS011;39658;51.090;-1.786;2023-09-12T08:40:33;5.50;;;2.35;;
53261;SDS011;39658;51.090;-1.786;2023-09-12T08:43:00;6.82;;;2.42;;
53261;SDS011;39658;51.090;-1.786;2023-09-12T08:45:28;6.15;;;2.17;;
53261;SDS011;39658;51.090;-1.786;2023-09-12T08:47:57;7.65;;;2.38;;
53261;SDS011;39658;51.090;-1.786;2023-09-12T08:50:26;7.75;;;2.38;;
53261;SDS011;39658;51.090;-1.786;2023-09-12T08:52:56;6.70;;;2.28;;
53261;SDS011;39658;51.090;-1.786;2023-09-12T08:55:24;6.22;;;2.92;;
53261;SDS011;39658;51.090;-1.786;2023-09-12T08:57:50;7.30;;;3.17;;
53261;SDS011;39658;51.090;-1.786;2023-09-12T09:00:19;7.38;;;2.83;;
53261;SDS011;39658;51.090;-1.786;2023-09-12T09:02:47;6.53;;;3.03;;
53261;SDS011;39658;51.090;-1.786;2023-09-12T09:05:16;6.88;;;2.63;;
53261;SDS011;39658;51.090;-1.786;2023-09-12T09:07:43;5.50;;;2.58;;
53261;SDS011;39658;51.090;-1.786;2023-09-12T09:10:13;8.50;;;3.13;;
53261;SDS011;39658;51.090;-1.786;2023-09-12T09:12:42;8.38;;;3.15;;
53261;SDS011;39658;51.090;-1.786;2023-09-12T09:15:20;7.18;;;3.28;;
53261;SDS011;39658;51.090;-1.786;2023-09-12T09:17:47;6.93;;;2.78;;
53261;SDS011;39658;51.090;-1.786;2023-09-12T09:20:25;10.48;;;2.97;;
53261;SDS011;39658;51.090;-1.786;2023-09-12T09:22:56;6.45;;;2.85;;
53261;SDS011;39658;51.090;-1.786;2023-09-12T09:25:24;7.05;;;3.70;;
53261;SDS011;39658;51.090;-1.786;2023-09-12T09:27:52;10.80;;;3.83;;
53261;SDS011;39658;51.090;-1.786;2023-09-12T09:30:20;10.60;;;4.35;;
53261;SDS011;39658;51.090;-1.786;2023-09-12T09:33:06;7.15;;;3.42;;
53261;SDS011;39658;51.090;-1.786;2023-09-12T09:35:33;7.05;;;2.63;;
53261;SDS011;39658;51.090;-1.786;2023-09-12T09:38:00;6.22;;;2.45;;
53261;SDS011;39658;51.090;-1.786;2023-09-12T09:40:27;6.47;;;2.63;;
53261;SDS011;39658;51.090;-1.786;2023-09-12T09:42:55;5.78;;;2.33;;
53261;SDS011;39658;51.090;-1.786;2023-09-12T09:45:25;6.05;;;2.70;;
53261;SDS011;39658;51.090;-1.786;2023-09-12T09:47:51;7.32;;;2.80;;
53261;SDS011;39658;51.090;-1.786;2023-09-12T09:50:18;5.20;;;2.40;;
53261;SDS011;39658;51.090;-1.786;2023-09-12T09:52:45;7.07;;;2.33;;
53261;SDS011;39658;51.090;-1.786;2023-09-12T09:55:13;6.03;;;2.03;;
53261;SDS011;39658;51.090;-1.786;2023-09-12T09:57:40;7.00;;;2.60;;
53261;SDS011;39658;51.090;-1.786;2023-09-12T10:00:08;4.70;;;2.10;;
53261;SDS011;39658;51.090;-1.786;2023-09-12T10:02:40;5.55;;;2.08;;
53261;SDS011;39658;51.090;-1.786;2023-09-12T10:05:08;4.82;;;1.63;;
53261;SDS011;39658;51.090;-1.786;2023-09-12T10:07:37;5.78;;;2.50;;
53261;SDS011;39658;51.090;-1.786;2023-09-12T10:10:04;5.93;;;2.60;;
53261;SDS011;39658;51.090;-1.786;2023-09-12T10:12:31;7.25;;;2.67;;
53261;SDS011;39658;51.090;-1.786;2023-09-12T10:15:01;8.25;;;2.55;;
53261;SDS011;39658;51.090;-1.786;2023-09-12T10:17:36;9.07;;;3.08;;
53261;SDS011;39658;51.090;-1.786;2023-09-12T10:20:07;6.47;;;2.00;;
53261;SDS011;39658;51.090;-1.786;2023-09-12T10:22:43;4.53;;;1.85;;
53261;SDS011;39658;51.090;-1.786;2023-09-12T10:25:17;7.07;;;1.73;;
53261;SDS011;39658;51.090;-1.786;2023-09-12T10:27:44;5.72;;;1.77;;
53261;SDS011;39658;51.090;-1.786;2023-09-12T10:30:11;5.55;;;1.95;;
53261;SDS011;39658;51.090;-1.786;2023-09-12T10:32:40;6.40;;;2.08;;
53261;SDS011;39658;51.090;-1.786;2023-09-12T10:35:11;6.03;;;2.30;;
53261;SDS011;39658;51.090;-1.786;2023-09-12T10:37:38;5.68;;;1.92;;
53261;SDS011;39658;51.090;-1.786;2023-09-12T10:40:08;4.63;;;1.95;;
53261;SDS011;39658;51.090;-1.786;2023-09-12T10:42:36;6.57;;;2.42;;
53261;SDS011;39658;51.090;-1.786;2023-09-12T10:45:04;6.65;;;2.25;;
53261;SDS011;39658;51.090;-1.786;2023-09-12T10:47:33;5.55;;;1.92;;
53261;SDS011;39658;51.090;-1.786;2023-09-12T10:50:02;5.50;;;2.17;;
53261;SDS011;39658;51.090;-1.786;2023-09-12T10:52:29;6.18;;;2.08;;
53261;SDS011;39658;51.090;-1.786;2023-09-12T10:54:57;5.18;;;2.38;;
53261;SDS011;39658;51.090;-1.786;2023-09-12T10:57:24;4.93;;;2.00;;
53261;SDS011;39658;51.090;-1.786;2023-09-12T11:00:09;4.93;;;2.05;;
53261;SDS011;39658;51.090;-1.786;2023-09-12T11:02:37;9.43;;;1.85;;
53261;SDS011;39658;51.090;-1.786;2023-09-12T11:05:06;5.82;;;2.20;;
53261;SDS011;39658;51.090;-1.786;2023-09-12T11:07:55;4.47;;;1.85;;
53261;SDS011;39658;51.090;-1.786;2023-09-12T11:10:23;5.95;;;2.30;;
53261;SDS011;39658;51.090;-1.786;2023-09-12T11:12:51;11.25;;;2.40;;
53261;SDS011;39658;51.090;-1.786;2023-09-12T11:15:19;5.72;;;2.38;;
53261;SDS011;39658;51.090;-1.786;2023-09-12T11:17:47;3.92;;;1.90;;
53261;SDS011;39658;51.090;-1.786;2023-09-12T11:20:16;5.15;;;2.20;;
53261;SDS011;39658;51.090;-1.786;2023-09-12T11:22:43;8.73;;;2.28;;
53261;SDS011;39658;51.090;-1.786;2023-09-12T11:25:18;5.82;;;2.03;;
53261;SDS011;39658;51.090;-1.786;2023-09-12T11:28:01;9.23;;;2.45;;
53261;SDS011;39658;51.090;-1.786;2023-09-12T11:30:29;5.10;;;1.83;;
53261;SDS011;39658;51.090;-1.786;2023-09-12T11:32:57;5.28;;;2.38;;
53261;SDS011;39658;51.090;-1.786;2023-09-12T11:35:27;9.95;;;2.75;;
53261;SDS011;39658;51.090;-1.786;2023-09-12T11:37:55;5.07;;;2.42;;
53261;SDS011;39658;51.090;-1.786;2023-09-12T11:40:23;5.43;;;2.20;;
53261;SDS011;39658;51.090;-1.786;2023-09-12T11:42:51;6.97;;;2.38;;
53261;SDS011;39658;51.090;-1.786;2023-09-12T11:45:19;7.47;;;2.47;;
53261;SDS011;39658;51.090;-1.786;2023-09-12T11:47:48;7.57;;;2.35;;
53261;SDS011;39658;51.090;-1.786;2023-09-12T11:50:30;6.28;;;2.67;;
53261;SDS011;39658;51.090;-1.786;2023-09-12T11:52:58;11.35;;;2.95;;
53261;SDS011;39658;51.090;-1.786;2023-09-12T11:55:25;7.68;;;3.15;;
53261;SDS011;39658;51.090;-1.786;2023-09-12T11:57:52;9.85;;;3.63;;
53261;SDS011;39658;51.090;-1.786;2023-09-12T12:00:19;6.55;;;3.03;;
53261;SDS011;39658;51.090;-1.786;2023-09-12T12:02:47;8.20;;;3.40;;
53261;SDS011;39658;51.090;-1.786;2023-09-12T12:05:13;11.45;;;3.83;;
53261;SDS011;39658;51.090;-1.786;2023-09-12T12:07:42;10.35;;;3.80;;
53261;SDS011;39658;51.090;-1.786;2023-09-12T12:10:11;8.32;;;3.10;;
53261;SDS011;39658;51.090;-1.786;2023-09-12T12:12:38;11.82;;;3.63;;
53261;SDS011;39658;51.090;-1.786;2023-09-12T12:15:06;12.50;;;3.80;;
53261;SDS011;39658;51.090;-1.786;2023-09-12T12:17:36;8.57;;;3.38;;
53261;SDS011;39658;51.090;-1.786;2023-09-12T12:20:06;8.07;;;3.53;;
53261;SDS011;39658;51.090;-1.786;2023-09-12T12:22:35;11.23;;;3.90;;
53261;SDS011;39658;51.090;-1.786;2023-09-12T12:25:06;6.93;;;3.45;;
53261;SDS011;39658;51.090;-1.786;2023-09-12T12:27:35;10.02;;;3.45;;
53261;SDS011;39658;51.090;-1.786;2023-09-12T12:30:03;8.75;;;3.58;;
53261;SDS011;39658;51.090;-1.786;2023-09-12T12:32:31;7.40;;;3.42;;
53261;SDS011;39658;51.090;-1.786;2023-09-12T12:34:58;7.88;;;3.25;;
53261;SDS011;39658;51.090;-1.786;2023-09-12T12:37:28;5.82;;;2.80;;
53261;SDS011;39658;51.090;-1.786;2023-09-12T12:39:56;8.50;;;2.72;;
53261;SDS011;39658;51.090;-1.786;2023-09-12T12:42:25;6.90;;;2.00;;
53261;SDS011;39658;51.090;-1.786;2023-09-12T12:44:52;6.40;;;1.67;;
53261;SDS011;39658;51.090;-1.786;2023-09-12T12:47:20;4.63;;;1.88;;
53261;SDS011;39658;51.090;-1.786;2023-09-12T12:49:50;6.82;;;2.53;;
53261;SDS011;39658;51.090;-1.786;2023-09-12T12:52:18;7.45;;;2.28;;
53261;SDS011;39658;51.090;-1.786;2023-09-12T12:54:49;4.82;;;2.15;;
53261;SDS011;39658;51.090;-1.786;2023-09-12T12:57:18;4.93;;;2.20;;
53261;SDS011;39658;51.090;-1.786;2023-09-12T12:59:47;7.28;;;1.80;;
53261;SDS011;39658;51.090;-1.786;2023-09-12T13:02:16;6.93;;;1.98;;
53261;SDS011;39658;51.090;-1.786;2023-09-12T13:04:44;7.50;;;1.98;;
53261;SDS011;39658;51.090;-1.786;2023-09-12T13:07:11;5.30;;;1.90;;
53261;SDS011;39658;51.090;-1.786;2023-09-12T13:09:37;10.43;;;2.08;;
53261;SDS011;39658;51.090;-1.786;2023-09-12T13:12:05;5.00;;;2.15;;
53261;SDS011;39658;51.090;-1.786;2023-09-12T13:14:33;7.18;;;1.90;;
53261;SDS011;39658;51.090;-1.786;2023-09-12T13:17:02;6.18;;;2.20;;
53261;SDS011;39658;51.090;-1.786;2023-09-12T13:19:29;6.13;;;2.45;;
53261;SDS011;39658;51.090;-1.786;2023-09-12T13:21:56;5.55;;;2.10;;
53261;SDS011;39658;51.090;-1.786;2023-09-12T13:24:23;9.65;;;2.53;;
53261;SDS011;39658;51.090;-1.786;2023-09-12T13:26:51;6.88;;;2.65;;
53261;SDS011;39658;51.090;-1.786;2023-09-12T13:29:18;6.45;;;2.20;;
53261;SDS011;39658;51.090;-1.786;2023-09-12T13:31:45;7.25;;;2.47;;
53261;SDS011;39658;51.090;-1.786;2023-09-12T13:34:13;7.03;;;2.50;;
53261;SDS011;39658;51.090;-1.786;2023-09-12T13:36:40;6.88;;;2.80;;
53261;SDS011;39658;51.090;-1.786;2023-09-12T13:39:07;5.22;;;2.13;;
53261;SDS011;39658;51.090;-1.786;2023-09-12T13:41:33;5.18;;;2.28;;
53261;SDS011;39658;51.090;-1.786;2023-09-12T13:44:01;10.88;;;3.13;;
53261;SDS011;39658;51.090;-1.786;2023-09-12T13:46:28;6.70;;;2.22;;
53261;SDS011;39658;51.090;-1.786;2023-09-12T13:48:55;5.72;;;2.38;;
53261;SDS011;39658;51.090;-1.786;2023-09-12T13:51:26;6.72;;;2.65;;
53261;SDS011;39658;51.090;-1.786;2023-09-12T13:53:53;5.28;;;1.95;;
53261;SDS011;39658;51.090;-1.786;2023-09-12T13:56:20;6.60;;;2.33;;
53261;SDS011;39658;51.090;-1.786;2023-09-12T13:58:47;5.32;;;2.00;;
53261;SDS011;39658;51.090;-1.786;2023-09-12T14:01:14;4.97;;;1.88;;
53261;SDS011;39658;51.090;-1.786;2023-09-12T14:03:42;7.82;;;2.45;;
53261;SDS011;39658;51.090;-1.786;2023-09-12T14:06:08;5.55;;;2.08;;
53261;SDS011;39658;51.090;-1.786;2023-09-12T14:08:36;5.90;;;2.50;;
53261;SDS011;39658;51.090;-1.786;2023-09-12T14:11:03;5.35;;;2.00;;
53261;SDS011;39658;51.090;-1.786;2023-09-12T14:13:30;5.18;;;1.95;;
53261;SDS011;39658;51.090;-1.786;2023-09-12T14:15:57;5.22;;;1.80;;
53261;SDS011;39658;51.090;-1.786;2023-09-12T14:18:24;5.72;;;2.17;;
53261;SDS011;39658;51.090;-1.786;2023-09-12T14:20:51;7.00;;;2.00;;
53261;SDS011;39658;51.090;-1.786;2023-09-12T14:23:17;4.18;;;1.75;;
53261;SDS011;39658;51.090;-1.786;2023-09-12T14:25:47;4.97;;;2.05;;
53261;SDS011;39658;51.090;-1.786;2023-09-12T14:28:14;4.10;;;1.35;;
53261;SDS011;39658;51.090;-1.786;2023-09-12T14:30:40;5.97;;;2.22;;
53261;SDS011;39658;51.090;-1.786;2023-09-12T14:33:10;4.40;;;1.70;;
53261;SDS011;39658;51.090;-1.786;2023-09-12T14:35:36;6.38;;;1.90;;
53261;SDS011;39658;51.090;-1.786;2023-09-12T14:38:03;4.65;;;1.83;;
53261;SDS011;39658;51.090;-1.786;2023-09-12T14:40:30;4.82;;;1.63;;
53261;SDS011;39658;51.090;-1.786;2023-09-12T14:42:58;5.40;;;1.80;;